^^
Station Historical Data
Daily Summary for December 10, 2017 Units:  Both    English   Metric
« Previous Day
Next Day »
Daily Weekly Monthly Yearly Custom
  High: Low: Average:
Temperature: TemperatureF °F /  -17.8 °C 65.5 °F /  18.6 °C 76.9 °F /  24.9 °C
Dew Point: DewpointF °F /  -17.8 °C 42.6 °F /  5.9 °C 47.6 °F /  8.7 °C
Humidity: Humidity% 21% 37%
Wind Speed: WindSpeedMPHmph /  0km/h - 1.3mph /  2.1km/h
Wind Gust: WindSpeedGustMPHmph /  0km/h - -
Wind- - SSW
Pressure: PressureIn in /  0 hPa 30.07 in /  1018.2 hPa -
Precipitation: 0.00 in /  0 mm    
Historical Graphs
 
 
Tabular Data for December 10, 2017
Time Temperature Dew Point Pressure Wind Wind Speed Wind Gust Humidity Rainfall Rate (Hourly) solar Conditions
TemperatureF °F /  -17.8 °C DewpointF °F /  -17.8 °C PressureInin /  0hPa Calm     Humidity% HourlyPrecipInin /  0mm SolarRadiationWatts/m^2 W/m2 Conditions
00:02 73.8 °F /  23.2 °C 46.6 °F /  8.1 °C 30.22in /  1023.2hPa East 2.0mph /  3.2km/h 7.0mph /  11.3km/h 38% 0.00in /  0mm 0.0 W/m2
00:07 73.8 °F /  23.2 °C 46.6 °F /  8.1 °C 30.21in /  1022.9hPa ESE 0.9mph /  1.4km/h 5.0mph /  8km/h 38% 0.00in /  0mm 0.0 W/m2
00:12 73.8 °F /  23.2 °C 46.6 °F /  8.1 °C 30.21in /  1022.9hPa ESE 2.0mph /  3.2km/h 6.0mph /  9.7km/h 38% 0.00in /  0mm 0.0 W/m2
00:17 73.8 °F /  23.2 °C 46.6 °F /  8.1 °C 30.21in /  1022.9hPa Calm   3.0mph /  4.8km/h 38% 0.00in /  0mm 0.0 W/m2
00:22 73.8 °F /  23.2 °C 46.6 °F /  8.1 °C 30.21in /  1022.9hPa SE 5.0mph /  8km/h 5.0mph /  8km/h 38% 0.00in /  0mm 0.0 W/m2
00:32 73.9 °F /  23.3 °C 46.8 °F /  8.2 °C 30.20in /  1022.6hPa Calm   2.0mph /  3.2km/h 38% 0.00in /  0mm 0.0 W/m2
00:38 73.9 °F /  23.3 °C 46.8 °F /  8.2 °C 30.20in /  1022.6hPa Calm   1.0mph /  1.6km/h 38% 0.00in /  0mm 0.0 W/m2
00:43 73.8 °F /  23.2 °C 47.3 °F /  8.5 °C 30.20in /  1022.6hPa Calm   1.0mph /  1.6km/h 39% 0.00in /  0mm 0.0 W/m2
00:48 73.8 °F /  23.2 °C 47.3 °F /  8.5 °C 30.20in /  1022.6hPa Calm     39% 0.00in /  0mm 0.0 W/m2
00:58 73.6 °F /  23.1 °C 47.8 °F /  8.8 °C 30.19in /  1022.2hPa Calm     40% 0.00in /  0mm 0.0 W/m2
01:00 73.4 °F /  23 °C 47.7 °F /  8.7 °C 30.19in /  1022.2hPa Calm   1.0mph /  1.6km/h 40% 0.00in /  0mm 0.0 W/m2
01:10 73.0 °F /  22.8 °C 48.0 °F /  8.9 °C 30.19in /  1022.2hPa Calm   1.0mph /  1.6km/h 41% 0.00in /  0mm 0.0 W/m2
01:15 72.9 °F /  22.7 °C 47.8 °F /  8.8 °C 30.19in /  1022.2hPa Calm   1.0mph /  1.6km/h 41% 0.00in /  0mm 0.0 W/m2
01:20 72.9 °F /  22.7 °C 48.4 °F /  9.1 °C 30.19in /  1022.2hPa Calm     42% 0.00in /  0mm 0.0 W/m2
01:26 72.7 °F /  22.6 °C 48.2 °F /  9 °C 30.19in /  1022.2hPa Calm     42% 0.00in /  0mm 0.0 W/m2
01:31 72.5 °F /  22.5 °C 48.7 °F /  9.3 °C 30.19in /  1022.2hPa Calm     43% 0.00in /  0mm 0.0 W/m2
01:36 72.3 °F /  22.4 °C 48.6 °F /  9.2 °C 30.19in /  1022.2hPa Calm     43% 0.00in /  0mm 0.0 W/m2
01:41 72.1 °F /  22.3 °C 49.1 °F /  9.5 °C 30.19in /  1022.2hPa Calm     44% 0.00in /  0mm 0.0 W/m2
01:46 72.0 °F /  22.2 °C 48.9 °F /  9.4 °C 30.19in /  1022.2hPa Calm     44% 0.00in /  0mm 0.0 W/m2
01:51 72.0 °F /  22.2 °C 48.2 °F /  9 °C 30.19in /  1022.2hPa Calm     43% 0.00in /  0mm 0.0 W/m2
01:56 72.0 °F /  22.2 °C 48.2 °F /  9 °C 30.19in /  1022.2hPa Calm   1.0mph /  1.6km/h 43% 0.00in /  0mm 0.0 W/m2
02:02 71.8 °F /  22.1 °C 48.7 °F /  9.3 °C 30.19in /  1022.2hPa Calm   1.0mph /  1.6km/h 44% 0.00in /  0mm 0.0 W/m2
02:07 71.8 °F /  22.1 °C 48.7 °F /  9.3 °C 30.19in /  1022.2hPa Calm     44% 0.00in /  0mm 0.0 W/m2
02:17 71.8 °F /  22.1 °C 49.3 °F /  9.6 °C 30.18in /  1021.9hPa Calm     45% 0.00in /  0mm 0.0 W/m2
02:22 71.6 °F /  22 °C 48.6 °F /  9.2 °C 30.18in /  1021.9hPa Calm   1.0mph /  1.6km/h 44% 0.00in /  0mm 0.0 W/m2
02:27 71.4 °F /  21.9 °C 48.9 °F /  9.4 °C 30.18in /  1021.9hPa Calm     45% 0.00in /  0mm 0.0 W/m2
02:37 71.4 °F /  21.9 °C 49.6 °F /  9.8 °C 30.18in /  1021.9hPa Calm     46% 0.00in /  0mm 0.0 W/m2
02:42 71.2 °F /  21.8 °C 49.5 °F /  9.7 °C 30.18in /  1021.9hPa Calm     46% 0.00in /  0mm 0.0 W/m2
02:48 71.2 °F /  21.8 °C 49.5 °F /  9.7 °C 30.18in /  1021.9hPa Calm     46% 0.00in /  0mm 0.0 W/m2
02:53 71.1 °F /  21.7 °C 49.3 °F /  9.6 °C 30.18in /  1021.9hPa Calm     46% 0.00in /  0mm 0.0 W/m2
02:58 71.1 °F /  21.7 °C 49.8 °F /  9.9 °C 30.18in /  1021.9hPa Calm     47% 0.00in /  0mm 0.0 W/m2
03:03 70.9 °F /  21.6 °C 49.6 °F /  9.8 °C 30.18in /  1021.9hPa Calm     47% 0.00in /  0mm 0.0 W/m2
03:08 70.9 °F /  21.6 °C 50.2 °F /  10.1 °C 30.18in /  1021.9hPa Calm   1.0mph /  1.6km/h 48% 0.00in /  0mm 0.0 W/m2
03:13 70.7 °F /  21.5 °C 50.0 °F /  10 °C 30.18in /  1021.9hPa Calm     48% 0.00in /  0mm 0.0 W/m2
03:18 70.7 °F /  21.5 °C 50.0 °F /  10 °C 30.18in /  1021.9hPa Calm     48% 0.00in /  0mm 0.0 W/m2
03:28 70.5 °F /  21.4 °C 50.4 °F /  10.2 °C 30.17in /  1021.6hPa Calm     49% 0.00in /  0mm 0.0 W/m2
03:33 70.3 °F /  21.3 °C 50.4 °F /  10.2 °C 30.17in /  1021.6hPa Calm   1.0mph /  1.6km/h 49% 0.00in /  0mm 0.0 W/m2
03:39 70.2 °F /  21.2 °C 50.7 °F /  10.4 °C 30.17in /  1021.6hPa Calm     50% 0.00in /  0mm 0.0 W/m2
03:44 70.0 °F /  21.1 °C 50.5 °F /  10.3 °C 30.17in /  1021.6hPa Calm     50% 0.00in /  0mm 0.0 W/m2
03:54 69.6 °F /  20.9 °C 49.1 °F /  9.5 °C 30.17in /  1021.6hPa Calm   1.0mph /  1.6km/h 48% 0.00in /  0mm 0.0 W/m2
04:04 69.6 °F /  20.9 °C 48.6 °F /  9.2 °C 30.17in /  1021.6hPa East 2.0mph /  3.2km/h 2.0mph /  3.2km/h 47% 0.00in /  0mm 0.0 W/m2
04:14 69.6 °F /  20.9 °C 48.6 °F /  9.2 °C 30.18in /  1021.9hPa Calm     47% 0.00in /  0mm 0.0 W/m2
04:20 69.4 °F /  20.8 °C 48.4 °F /  9.1 °C 30.18in /  1021.9hPa Calm     47% 0.00in /  0mm 0.0 W/m2
04:25 69.3 °F /  20.7 °C 49.3 °F /  9.6 °C 30.18in /  1021.9hPa Calm     49% 0.00in /  0mm 0.0 W/m2
04:35 68.9 °F /  20.5 °C 49.5 °F /  9.7 °C 30.18in /  1021.9hPa Calm   1.0mph /  1.6km/h 50% 0.00in /  0mm 0.0 W/m2
04:40 68.7 °F /  20.4 °C 49.3 °F /  9.6 °C 30.18in /  1021.9hPa Calm   1.0mph /  1.6km/h 50% 0.00in /  0mm 0.0 W/m2
04:50 68.2 °F /  20.1 °C 49.3 °F /  9.6 °C 30.18in /  1021.9hPa East 2.0mph /  3.2km/h 2.0mph /  3.2km/h 51% 0.00in /  0mm 0.0 W/m2
04:55 67.8 °F /  19.9 °C 49.1 °F /  9.5 °C 30.18in /  1021.9hPa Calm   1.0mph /  1.6km/h 51% 0.00in /  0mm 0.0 W/m2
05:00 67.6 °F /  19.8 °C 48.9 °F /  9.4 °C 30.18in /  1021.9hPa Calm   1.0mph /  1.6km/h 51% 0.00in /  0mm 0.0 W/m2
05:06 67.6 °F /  19.8 °C 48.9 °F /  9.4 °C 30.18in /  1021.9hPa Calm     51% 0.00in /  0mm 0.0 W/m2
05:18 67.5 °F /  19.7 °C 49.3 °F /  9.6 °C 30.18in /  1021.9hPa NE 0.9mph /  1.4km/h 1.0mph /  1.6km/h 52% 0.00in /  0mm 0.0 W/m2
05:23 67.3 °F /  19.6 °C 49.1 °F /  9.5 °C 30.19in /  1022.2hPa Calm   1.0mph /  1.6km/h 52% 0.00in /  0mm 0.0 W/m2
05:28 67.3 °F /  19.6 °C 49.1 °F /  9.5 °C 30.19in /  1022.2hPa Calm   2.0mph /  3.2km/h 52% 0.00in /  0mm 0.0 W/m2
05:33 67.1 °F /  19.5 °C 48.9 °F /  9.4 °C 30.19in /  1022.2hPa Calm   1.0mph /  1.6km/h 52% 0.00in /  0mm 0.0 W/m2
05:41 66.9 °F /  19.4 °C 49.3 °F /  9.6 °C 30.19in /  1022.2hPa Calm     53% 0.00in /  0mm 0.0 W/m2
05:46 66.9 °F /  19.4 °C 48.7 °F /  9.3 °C 30.19in /  1022.2hPa East 0.9mph /  1.4km/h 1.0mph /  1.6km/h 52% 0.00in /  0mm 0.0 W/m2
05:47 66.9 °F /  19.4 °C 49.3 °F /  9.6 °C 30.19in /  1022.2hPa Calm   1.0mph /  1.6km/h 53% 0.00in /  0mm 0.0 W/m2
06:01 66.7 °F /  19.3 °C 49.1 °F /  9.5 °C 30.19in /  1022.2hPa East 2.0mph /  3.2km/h 2.0mph /  3.2km/h 53% 0.00in /  0mm 0.0 W/m2
06:06 66.6 °F /  19.2 °C 48.9 °F /  9.4 °C 30.19in /  1022.2hPa Calm   1.0mph /  1.6km/h 53% 0.00in /  0mm 5.0 W/m2
06:11 66.4 °F /  19.1 °C 49.3 °F /  9.6 °C 30.19in /  1022.2hPa Calm   1.0mph /  1.6km/h 54% 0.00in /  0mm 9.0 W/m2
06:17 66.0 °F /  18.9 °C 49.5 °F /  9.7 °C 30.19in /  1022.2hPa Calm   2.0mph /  3.2km/h 55% 0.00in /  0mm 11.0 W/m2
06:22 66.0 °F /  18.9 °C 49.8 °F /  9.9 °C 30.19in /  1022.2hPa Calm   3.0mph /  4.8km/h 56% 0.00in /  0mm 12.0 W/m2
06:27 65.8 °F /  18.8 °C 49.6 °F /  9.8 °C 30.19in /  1022.2hPa Calm   1.0mph /  1.6km/h 56% 0.00in /  0mm 14.0 W/m2
06:32 65.7 °F /  18.7 °C 50.0 °F /  10 °C 30.19in /  1022.2hPa Calm     57% 0.00in /  0mm 16.0 W/m2
06:42 65.5 °F /  18.6 °C 49.8 °F /  9.9 °C 30.19in /  1022.2hPa Calm   1.0mph /  1.6km/h 57% 0.00in /  0mm 19.0 W/m2
06:47 65.7 °F /  18.7 °C 50.5 °F /  10.3 °C 30.19in /  1022.2hPa Calm   2.0mph /  3.2km/h 58% 0.00in /  0mm 21.0 W/m2
06:52 65.7 °F /  18.7 °C 50.0 °F /  10 °C 30.19in /  1022.2hPa Calm   3.0mph /  4.8km/h 57% 0.00in /  0mm 21.0 W/m2
06:57 65.8 °F /  18.8 °C 50.2 °F /  10.1 °C 30.19in /  1022.2hPa ENE 0.9mph /  1.4km/h 2.0mph /  3.2km/h 57% 0.00in /  0mm 23.0 W/m2
07:02 66.0 °F /  18.9 °C 50.4 °F /  10.2 °C 30.19in /  1022.2hPa SE 0.9mph /  1.4km/h 3.0mph /  4.8km/h 57% 0.00in /  0mm 25.0 W/m2
07:08 66.6 °F /  19.2 °C 50.9 °F /  10.5 °C 30.19in /  1022.2hPa Calm   3.0mph /  4.8km/h 57% 0.00in /  0mm 25.0 W/m2
07:13 66.7 °F /  19.3 °C 50.5 °F /  10.3 °C 30.19in /  1022.2hPa Calm   1.0mph /  1.6km/h 56% 0.00in /  0mm 26.0 W/m2
07:23 67.8 °F /  19.9 °C 51.1 °F /  10.6 °C 30.20in /  1022.6hPa ESE 2.0mph /  3.2km/h 4.0mph /  6.4km/h 55% 0.00in /  0mm 28.0 W/m2
07:28 68.4 °F /  20.2 °C 51.6 °F /  10.9 °C 30.20in /  1022.6hPa NE 2.9mph /  4.7km/h 4.0mph /  6.4km/h 55% 0.00in /  0mm 49.0 W/m2
07:33 69.1 °F /  20.6 °C 51.3 °F /  10.7 °C 30.20in /  1022.6hPa Calm   3.0mph /  4.8km/h 53% 0.00in /  0mm 169.0 W/m2
07:38 69.6 °F /  20.9 °C 51.3 °F /  10.7 °C 30.20in /  1022.6hPa ESE 2.0mph /  3.2km/h 4.0mph /  6.4km/h 52% 0.00in /  0mm 299.0 W/m2
07:43 70.7 °F /  21.5 °C 50.0 °F /  10 °C 30.20in /  1022.6hPa Calm   3.0mph /  4.8km/h 48% 0.00in /  0mm 343.0 W/m2
07:48 71.8 °F /  22.1 °C 49.8 °F /  9.9 °C 30.20in /  1022.6hPa Calm     46% 0.00in /  0mm 378.0 W/m2
07:54 73.2 °F /  22.9 °C 50.0 °F /  10 °C 30.20in /  1022.6hPa Calm   1.0mph /  1.6km/h 44% 0.00in /  0mm 396.0 W/m2
08:00 74.7 °F /  23.7 °C 50.0 °F /  10 °C 30.20in /  1022.6hPa Calm   2.0mph /  3.2km/h 42% 0.00in /  0mm 418.0 W/m2
08:05 75.7 °F /  24.3 °C 49.6 °F /  9.8 °C 30.19in /  1022.2hPa NE 2.9mph /  4.7km/h 4.0mph /  6.4km/h 40% 0.00in /  0mm 443.0 W/m2
08:15 77.4 °F /  25.2 °C 49.8 °F /  9.9 °C 30.19in /  1022.2hPa NNW 2.0mph /  3.2km/h 6.0mph /  9.7km/h 38% 0.00in /  0mm 483.0 W/m2
08:20 78.1 °F /  25.6 °C 48.9 °F /  9.4 °C 30.19in /  1022.2hPa North 2.0mph /  3.2km/h 3.0mph /  4.8km/h 36% 0.00in /  0mm 503.0 W/m2
08:32 79.5 °F /  26.4 °C 48.7 °F /  9.3 °C 30.19in /  1022.2hPa NNW 0.9mph /  1.4km/h 2.0mph /  3.2km/h 34% 0.00in /  0mm 545.0 W/m2
08:37 79.9 °F /  26.6 °C 48.9 °F /  9.4 °C 30.19in /  1022.2hPa North 2.9mph /  4.7km/h 5.0mph /  8km/h 34% 0.00in /  0mm 566.0 W/m2
08:54 80.8 °F /  27.1 °C 48.2 °F /  9 °C 30.19in /  1022.2hPa WSW 0.9mph /  1.4km/h 4.0mph /  6.4km/h 32% 0.00in /  0mm 622.0 W/m2
09:09 81.1 °F /  27.3 °C 48.6 °F /  9.2 °C 30.18in /  1021.9hPa WNW 0.9mph /  1.4km/h 5.0mph /  8km/h 32% 0.00in /  0mm 677.0 W/m2
09:14 81.5 °F /  27.5 °C 48.7 °F /  9.3 °C 30.18in /  1021.9hPa NNW 4.9mph /  7.9km/h 7.0mph /  11.3km/h 32% 0.00in /  0mm 693.0 W/m2
09:19 81.9 °F /  27.7 °C 49.1 °F /  9.5 °C 30.18in /  1021.9hPa North 0.9mph /  1.4km/h 2.0mph /  3.2km/h 32% 0.00in /  0mm 710.0 W/m2
09:24 82.0 °F /  27.8 °C 48.4 °F /  9.1 °C 30.18in /  1021.9hPa Calm   3.0mph /  4.8km/h 31% 0.00in /  0mm 724.0 W/m2
09:29 82.2 °F /  27.9 °C 47.7 °F /  8.7 °C 30.17in /  1021.6hPa NW 2.9mph /  4.7km/h 9.0mph /  14.5km/h 30% 0.00in /  0mm 745.0 W/m2
09:35 82.6 °F /  28.1 °C 48.0 °F /  8.9 °C 30.17in /  1021.6hPa NW 4.0mph /  6.4km/h 7.0mph /  11.3km/h 30% 0.00in /  0mm 759.0 W/m2
09:40 82.8 °F /  28.2 °C 49.1 °F /  9.5 °C 30.17in /  1021.6hPa WSW 2.0mph /  3.2km/h 6.0mph /  9.7km/h 31% 0.00in /  0mm 777.0 W/m2
09:45 82.8 °F /  28.2 °C 48.2 °F /  9 °C 30.18in /  1021.9hPa NNW 4.0mph /  6.4km/h 7.0mph /  11.3km/h 30% 0.00in /  0mm 791.0 W/m2
09:50 83.1 °F /  28.4 °C 47.7 °F /  8.7 °C 30.17in /  1021.6hPa Calm   5.0mph /  8km/h 29% 0.00in /  0mm 807.0 W/m2
09:55 83.1 °F /  28.4 °C 47.7 °F /  8.7 °C 30.18in /  1021.9hPa Calm   4.0mph /  6.4km/h 29% 0.00in /  0mm 819.0 W/m2
10:05 83.1 °F /  28.4 °C 46.6 °F /  8.1 °C 30.17in /  1021.6hPa WSW 0.9mph /  1.4km/h 6.0mph /  9.7km/h 28% 0.00in /  0mm 847.0 W/m2
10:15 83.7 °F /  28.7 °C 48.0 °F /  8.9 °C 30.18in /  1021.9hPa NNE 4.9mph /  7.9km/h 6.0mph /  9.7km/h 29% 0.00in /  0mm 872.0 W/m2
10:20 84.2 °F /  29 °C 47.5 °F /  8.6 °C 30.18in /  1021.9hPa West 0.9mph /  1.4km/h 7.0mph /  11.3km/h 28% 0.00in /  0mm 886.0 W/m2
10:26 84.2 °F /  29 °C 47.5 °F /  8.6 °C 30.18in /  1021.9hPa North 2.9mph /  4.7km/h 3.0mph /  4.8km/h 28% 0.00in /  0mm 902.0 W/m2
10:41 85.3 °F /  29.6 °C 47.5 °F /  8.6 °C 30.18in /  1021.9hPa Calm   4.0mph /  6.4km/h 27% 0.00in /  0mm 947.0 W/m2
10:51 84.7 °F /  29.3 °C 48.0 °F /  8.9 °C 30.17in /  1021.6hPa WSW 2.0mph /  3.2km/h 9.0mph /  14.5km/h 28% 0.00in /  0mm 1034.0 W/m2
10:56 85.3 °F /  29.6 °C 47.5 °F /  8.6 °C 30.17in /  1021.6hPa NNE 2.9mph /  4.7km/h 4.0mph /  6.4km/h 27% 0.00in /  0mm 1027.0 W/m2
11:01 85.8 °F /  29.9 °C 46.9 °F /  8.3 °C 30.18in /  1021.9hPa WSW 0.9mph /  1.4km/h 3.0mph /  4.8km/h 26% 0.00in /  0mm 1116.0 W/m2
11:07 85.8 °F /  29.9 °C 46.9 °F /  8.3 °C 30.17in /  1021.6hPa Calm   5.0mph /  8km/h 26% 0.00in /  0mm 204.0 W/m2
11:12 85.5 °F /  29.7 °C 46.6 °F /  8.1 °C 30.18in /  1021.9hPa SW 2.0mph /  3.2km/h 5.0mph /  8km/h 26% 0.00in /  0mm 1176.0 W/m2
11:17 85.1 °F /  29.5 °C 46.4 °F /  8 °C 30.17in /  1021.6hPa West 0.9mph /  1.4km/h 6.0mph /  9.7km/h 26% 0.00in /  0mm 1208.0 W/m2
11:22 85.1 °F /  29.5 °C 47.3 °F /  8.5 °C 30.17in /  1021.6hPa West 2.0mph /  3.2km/h 6.0mph /  9.7km/h 27% 0.00in /  0mm 1204.0 W/m2
11:32 85.8 °F /  29.9 °C 46.9 °F /  8.3 °C 30.17in /  1021.6hPa West 2.9mph /  4.7km/h 4.0mph /  6.4km/h 26% 0.00in /  0mm 1158.0 W/m2
11:47 86.7 °F /  30.4 °C 46.8 °F /  8.2 °C 30.17in /  1021.6hPa SE 4.0mph /  6.4km/h 7.0mph /  11.3km/h 25% 0.00in /  0mm 1165.0 W/m2
11:52 86.5 °F /  30.3 °C 46.6 °F /  8.1 °C 30.17in /  1021.6hPa SSW 2.0mph /  3.2km/h 5.0mph /  8km/h 25% 0.00in /  0mm 1165.0 W/m2
12:03 86.5 °F /  30.3 °C 47.7 °F /  8.7 °C 30.16in /  1021.2hPa WNW 0.9mph /  1.4km/h 9.0mph /  14.5km/h 26% 0.00in /  0mm 1243.0 W/m2
12:09 87.1 °F /  30.6 °C 46.9 °F /  8.3 °C 30.16in /  1021.2hPa NNW 4.0mph /  6.4km/h 6.0mph /  9.7km/h 25% 0.00in /  0mm 1223.0 W/m2
12:14 87.3 °F /  30.7 °C 47.1 °F /  8.4 °C 30.16in /  1021.2hPa Calm   5.0mph /  8km/h 25% 0.00in /  0mm 1204.0 W/m2
12:19 87.3 °F /  30.7 °C 47.1 °F /  8.4 °C 30.16in /  1021.2hPa West 0.9mph /  1.4km/h 5.0mph /  8km/h 25% 0.00in /  0mm 1260.0 W/m2
12:24 86.7 °F /  30.4 °C 46.8 °F /  8.2 °C 30.16in /  1021.2hPa WSW 0.9mph /  1.4km/h 5.0mph /  8km/h 25% 0.00in /  0mm 255.0 W/m2
12:34 86.9 °F /  30.5 °C 46.8 °F /  8.2 °C 30.15in /  1020.9hPa Calm   5.0mph /  8km/h 25% 0.00in /  0mm 1188.0 W/m2
12:39 88.2 °F /  31.2 °C 46.8 °F /  8.2 °C 30.15in /  1020.9hPa North 4.0mph /  6.4km/h 8.0mph /  12.9km/h 24% 0.00in /  0mm 1167.0 W/m2
12:44 89.1 °F /  31.7 °C 46.4 °F /  8 °C 30.15in /  1020.9hPa NNE 4.9mph /  7.9km/h 6.0mph /  9.7km/h 23% 0.00in /  0mm 1139.0 W/m2
12:50 89.4 °F /  31.9 °C 46.8 °F /  8.2 °C 30.15in /  1020.9hPa SE 0.9mph /  1.4km/h 3.0mph /  4.8km/h 23% 0.00in /  0mm 1144.0 W/m2
12:55 89.8 °F /  32.1 °C 47.1 °F /  8.4 °C 30.14in /  1020.5hPa NE 6.0mph /  9.7km/h 8.0mph /  12.9km/h 23% 0.00in /  0mm 1197.0 W/m2
13:00 90.0 °F /  32.2 °C 46.0 °F /  7.8 °C 30.14in /  1020.5hPa NNE 2.0mph /  3.2km/h 6.0mph /  9.7km/h 22% 0.00in /  0mm 1250.0 W/m2
13:10 90.5 °F /  32.5 °C 46.4 °F /  8 °C 30.14in /  1020.5hPa Calm   9.0mph /  14.5km/h 22% 0.00in /  0mm 1318.0 W/m2
13:15 90.7 °F /  32.6 °C 46.6 °F /  8.1 °C 30.14in /  1020.5hPa West 2.9mph /  4.7km/h 5.0mph /  8km/h 22% 0.00in /  0mm 220.0 W/m2
13:20 89.8 °F /  32.1 °C 47.1 °F /  8.4 °C 30.14in /  1020.5hPa West 2.0mph /  3.2km/h 5.0mph /  8km/h 23% 0.00in /  0mm 230.0 W/m2
13:25 88.3 °F /  31.3 °C 45.9 °F /  7.7 °C 30.13in /  1020.2hPa Calm   3.0mph /  4.8km/h 23% 0.00in /  0mm 274.0 W/m2
13:30 87.6 °F /  30.9 °C 46.4 °F /  8 °C 30.13in /  1020.2hPa Calm   7.0mph /  11.3km/h 24% 0.00in /  0mm 1234.0 W/m2
13:36 88.0 °F /  31.1 °C 46.6 °F /  8.1 °C 30.12in /  1019.9hPa WSW 0.9mph /  1.4km/h 8.0mph /  12.9km/h 24% 0.00in /  0mm 1190.0 W/m2
13:41 88.9 °F /  31.6 °C 46.2 °F /  7.9 °C 30.12in /  1019.9hPa West 2.0mph /  3.2km/h 8.0mph /  12.9km/h 23% 0.00in /  0mm 1178.0 W/m2
13:46 89.6 °F /  32 °C 46.9 °F /  8.3 °C 30.12in /  1019.9hPa WSW 4.9mph /  7.9km/h 6.0mph /  9.7km/h 23% 0.00in /  0mm 1238.0 W/m2
13:51 89.8 °F /  32.1 °C 45.9 °F /  7.7 °C 30.12in /  1019.9hPa NW 4.9mph /  7.9km/h 7.0mph /  11.3km/h 22% 0.00in /  0mm 385.0 W/m2
13:56 89.8 °F /  32.1 °C 47.1 °F /  8.4 °C 30.12in /  1019.9hPa NW 2.0mph /  3.2km/h 5.0mph /  8km/h 23% 0.00in /  0mm 378.0 W/m2
14:01 90.1 °F /  32.3 °C 46.2 °F /  7.9 °C 30.11in /  1019.5hPa NNE 4.9mph /  7.9km/h 8.0mph /  12.9km/h 22% 0.00in /  0mm 1220.0 W/m2
14:06 90.9 °F /  32.7 °C 46.8 °F /  8.2 °C 30.11in /  1019.5hPa NNW 2.0mph /  3.2km/h 2.0mph /  3.2km/h 22% 0.00in /  0mm 1243.0 W/m2
14:11 91.2 °F /  32.9 °C 45.9 °F /  7.7 °C 30.10in /  1019.2hPa Calm   2.0mph /  3.2km/h 21% 0.00in /  0mm 327.0 W/m2
14:16 91.0 °F /  32.8 °C 45.7 °F /  7.6 °C 30.10in /  1019.2hPa North 2.0mph /  3.2km/h 7.0mph /  11.3km/h 21% 0.00in /  0mm 568.0 W/m2
14:32 89.4 °F /  31.9 °C 46.8 °F /  8.2 °C 30.09in /  1018.8hPa NE 0.9mph /  1.4km/h 10.0mph /  16.1km/h 23% 0.00in /  0mm 183.0 W/m2
14:37 88.9 °F /  31.6 °C 46.2 °F /  7.9 °C 30.09in /  1018.8hPa Calm   5.0mph /  8km/h 23% 0.00in /  0mm 155.0 W/m2
14:42 88.0 °F /  31.1 °C 46.6 °F /  8.1 °C 30.09in /  1018.8hPa NE 2.0mph /  3.2km/h 4.0mph /  6.4km/h 24% 0.00in /  0mm 130.0 W/m2
14:47 87.3 °F /  30.7 °C 46.0 °F /  7.8 °C 30.09in /  1018.8hPa ENE 4.0mph /  6.4km/h 6.0mph /  9.7km/h 24% 0.00in /  0mm 135.0 W/m2
15:02 85.6 °F /  29.8 °C 47.8 °F /  8.8 °C 30.09in /  1018.8hPa NNE 0.9mph /  1.4km/h 6.0mph /  9.7km/h 27% 0.00in /  0mm 162.0 W/m2
15:08 84.6 °F /  29.2 °C 46.9 °F /  8.3 °C 30.09in /  1018.8hPa WNW 4.9mph /  7.9km/h 8.0mph /  12.9km/h 27% 0.00in /  0mm 200.0 W/m2
15:18 84.9 °F /  29.4 °C 47.1 °F /  8.4 °C 30.08in /  1018.5hPa WSW 11.0mph /  17.7km/h 13.0mph /  20.9km/h 27% 0.00in /  0mm 988.0 W/m2
15:23 86.0 °F /  30 °C 49.1 °F /  9.5 °C 30.08in /  1018.5hPa West 2.0mph /  3.2km/h 3.0mph /  4.8km/h 28% 0.00in /  0mm 926.0 W/m2
15:38 88.5 °F /  31.4 °C 46.0 °F /  7.8 °C 30.08in /  1018.5hPa Calm   9.0mph /  14.5km/h 23% 0.00in /  0mm 976.0 W/m2
15:43 89.4 °F /  31.9 °C 46.8 °F /  8.2 °C 30.08in /  1018.5hPa NNW 2.9mph /  4.7km/h 6.0mph /  9.7km/h 23% 0.00in /  0mm 747.0 W/m2
15:48 89.6 °F /  32 °C 46.9 °F /  8.3 °C 30.08in /  1018.5hPa NW 8.9mph /  14.3km/h 14.0mph /  22.5km/h 23% 0.00in /  0mm 209.0 W/m2
15:53 88.2 °F /  31.2 °C 44.6 °F /  7 °C 30.08in /  1018.5hPa NNW 6.9mph /  11.1km/h 7.0mph /  11.3km/h 22% 0.00in /  0mm 227.0 W/m2
15:58 87.3 °F /  30.7 °C 43.7 °F /  6.5 °C 30.07in /  1018.2hPa NW 2.9mph /  4.7km/h 6.0mph /  9.7km/h 22% 0.00in /  0mm 197.0 W/m2
16:03 86.5 °F /  30.3 °C 44.4 °F /  6.9 °C 30.07in /  1018.2hPa WSW 0.9mph /  1.4km/h 5.0mph /  8km/h 23% 0.00in /  0mm 181.0 W/m2
16:09 86.4 °F /  30.2 °C 44.2 °F /  6.8 °C 30.08in /  1018.5hPa NW 2.0mph /  3.2km/h 5.0mph /  8km/h 23% 0.00in /  0mm 100.0 W/m2
16:19 85.6 °F /  29.8 °C 45.9 °F /  7.7 °C 30.08in /  1018.5hPa SSE 6.0mph /  9.7km/h 7.0mph /  11.3km/h 25% 0.00in /  0mm 97.0 W/m2
16:25 84.9 °F /  29.4 °C 46.2 °F /  7.9 °C 30.08in /  1018.5hPa SE 6.0mph /  9.7km/h 9.0mph /  14.5km/h 26% 0.00in /  0mm 97.0 W/m2
16:30 84.0 °F /  28.9 °C 48.4 °F /  9.1 °C 30.09in /  1018.8hPa SE 6.0mph /  9.7km/h 10.0mph /  16.1km/h 29% 0.00in /  0mm 93.0 W/m2
16:40 81.7 °F /  27.6 °C 47.3 °F /  8.5 °C 30.08in /  1018.5hPa NE 2.0mph /  3.2km/h 11.0mph /  17.7km/h 30% 0.00in /  0mm 83.0 W/m2
16:45 81.0 °F /  27.2 °C 47.5 °F /  8.6 °C 30.08in /  1018.5hPa East 4.9mph /  7.9km/h 9.0mph /  14.5km/h 31% 0.00in /  0mm 83.0 W/m2
16:56 80.4 °F /  26.9 °C 46.2 °F /  7.9 °C 30.07in /  1018.2hPa ESE 0.9mph /  1.4km/h 6.0mph /  9.7km/h 30% 0.00in /  0mm 62.0 W/m2
17:01 80.4 °F /  26.9 °C 45.3 °F /  7.4 °C 30.07in /  1018.2hPa SE 2.9mph /  4.7km/h 4.0mph /  6.4km/h 29% 0.00in /  0mm 56.0 W/m2
17:06 80.6 °F /  27 °C 44.4 °F /  6.9 °C 30.07in /  1018.2hPa Calm   1.0mph /  1.6km/h 28% 0.00in /  0mm 53.0 W/m2
17:11 80.8 °F /  27.1 °C 42.6 °F /  5.9 °C 30.07in /  1018.2hPa NE 2.0mph /  3.2km/h 4.0mph /  6.4km/h 26% 0.00in /  0mm 49.0 W/m2
17:17 81.0 °F /  27.2 °C 43.9 °F /  6.6 °C 30.07in /  1018.2hPa Calm   3.0mph /  4.8km/h 27% 0.00in /  0mm 47.0 W/m2
17:23 81.0 °F /  27.2 °C 44.8 °F /  7.1 °C 30.07in /  1018.2hPa Calm   5.0mph /  8km/h 28% 0.00in /  0mm 46.0 W/m2
17:28 81.0 °F /  27.2 °C 43.9 °F /  6.6 °C 30.08in /  1018.5hPa East 2.9mph /  4.7km/h 3.0mph /  4.8km/h 27% 0.00in /  0mm 37.0 W/m2
17:33 81.0 °F /  27.2 °C 43.9 °F /  6.6 °C 30.08in /  1018.5hPa SE 4.0mph /  6.4km/h 6.0mph /  9.7km/h 27% 0.00in /  0mm 30.0 W/m2
17:38 80.8 °F /  27.1 °C 43.7 °F /  6.5 °C 30.08in /  1018.5hPa South 0.9mph /  1.4km/h 4.0mph /  6.4km/h 27% 0.00in /  0mm 26.0 W/m2
17:43 80.8 °F /  27.1 °C 43.7 °F /  6.5 °C 30.09in /  1018.8hPa WSW 2.0mph /  3.2km/h 2.0mph /  3.2km/h 27% 0.00in /  0mm 26.0 W/m2
17:48 80.4 °F /  26.9 °C 45.3 °F /  7.4 °C 30.09in /  1018.8hPa West 0.9mph /  1.4km/h 5.0mph /  8km/h 29% 0.00in /  0mm 25.0 W/m2
17:53 80.4 °F /  26.9 °C 46.2 °F /  7.9 °C 30.09in /  1018.8hPa WNW 2.0mph /  3.2km/h 3.0mph /  4.8km/h 30% 0.00in /  0mm 19.0 W/m2
18:04 80.1 °F /  26.7 °C 47.5 °F /  8.6 °C 30.10in /  1019.2hPa WNW 2.0mph /  3.2km/h 2.0mph /  3.2km/h 32% 0.00in /  0mm 16.0 W/m2
18:09 79.9 °F /  26.6 °C 48.2 °F /  9 °C 30.10in /  1019.2hPa West 6.0mph /  9.7km/h 6.0mph /  9.7km/h 33% 0.00in /  0mm 19.0 W/m2
18:14 79.7 °F /  26.5 °C 48.0 °F /  8.9 °C 30.10in /  1019.2hPa WSW 0.9mph /  1.4km/h 1.0mph /  1.6km/h 33% 0.00in /  0mm 21.0 W/m2
18:20 79.3 °F /  26.3 °C 48.6 °F /  9.2 °C 30.10in /  1019.2hPa WNW 2.0mph /  3.2km/h 3.0mph /  4.8km/h 34% 0.00in /  0mm 23.0 W/m2
18:25 79.2 °F /  26.2 °C 49.1 °F /  9.5 °C 30.10in /  1019.2hPa Calm   2.0mph /  3.2km/h 35% 0.00in /  0mm 19.0 W/m2
18:30 78.8 °F /  26 °C 48.9 °F /  9.4 °C 30.11in /  1019.5hPa Calm   1.0mph /  1.6km/h 35% 0.00in /  0mm 19.0 W/m2
18:35 78.6 °F /  25.9 °C 48.7 °F /  9.3 °C 30.11in /  1019.5hPa Calm   3.0mph /  4.8km/h 35% 0.00in /  0mm 19.0 W/m2
18:46 78.3 °F /  25.7 °C 47.7 °F /  8.7 °C 30.12in /  1019.9hPa NNW 3.0mph /  4.8km/h 3.0mph /  4.8km/h 34% 0.00in /  0mm 14.0 W/m2
18:52 78.3 °F /  25.7 °C 47.7 °F /  8.7 °C 30.12in /  1019.9hPa Calm   3.0mph /  4.8km/h 34% 0.00in /  0mm 12.0 W/m2
18:57 78.1 °F /  25.6 °C 48.9 °F /  9.4 °C 30.12in /  1019.9hPa Calm   8.0mph /  12.9km/h 36% 0.00in /  0mm 9.0 W/m2
19:02 77.7 °F /  25.4 °C 47.1 °F /  8.4 °C 30.13in /  1020.2hPa WNW 0.9mph /  1.4km/h 5.0mph /  8km/h 34% 0.00in /  0mm 7.0 W/m2
19:07 77.5 °F /  25.3 °C 46.2 °F /  7.9 °C 30.13in /  1020.2hPa SSW 6.0mph /  9.7km/h 9.0mph /  14.5km/h 33% 0.00in /  0mm 5.0 W/m2
19:12 77.4 °F /  25.2 °C 46.0 °F /  7.8 °C 30.13in /  1020.2hPa Calm   5.0mph /  8km/h 33% 0.00in /  0mm 0.0 W/m2
19:18 77.2 °F /  25.1 °C 46.6 °F /  8.1 °C 30.13in /  1020.2hPa WSW 2.9mph /  4.7km/h 9.0mph /  14.5km/h 34% 0.00in /  0mm 0.0 W/m2
19:23 76.8 °F /  24.9 °C 47.1 °F /  8.4 °C 30.13in /  1020.2hPa West 2.0mph /  3.2km/h 5.0mph /  8km/h 35% 0.00in /  0mm 0.0 W/m2
19:34 75.9 °F /  24.4 °C 48.6 °F /  9.2 °C 30.13in /  1020.2hPa West 0.9mph /  1.4km/h 6.0mph /  9.7km/h 38% 0.00in /  0mm 0.0 W/m2
19:39 75.6 °F /  24.2 °C 48.9 °F /  9.4 °C 30.13in /  1020.2hPa Calm   2.0mph /  3.2km/h 39% 0.00in /  0mm 0.0 W/m2
19:50 74.8 °F /  23.8 °C 48.9 °F /  9.4 °C 30.13in /  1020.2hPa Calm   2.0mph /  3.2km/h 40% 0.00in /  0mm 0.0 W/m2
19:55 74.8 °F /  23.8 °C 48.9 °F /  9.4 °C 30.14in /  1020.5hPa SSE 2.0mph /  3.2km/h 3.0mph /  4.8km/h 40% 0.00in /  0mm 0.0 W/m2
20:00 74.7 °F /  23.7 °C 48.7 °F /  9.3 °C 30.14in /  1020.5hPa SSW 0.9mph /  1.4km/h 3.0mph /  4.8km/h 40% 0.00in /  0mm 0.0 W/m2
20:05 74.7 °F /  23.7 °C 48.7 °F /  9.3 °C 30.15in /  1020.9hPa Calm   2.0mph /  3.2km/h 40% 0.00in /  0mm 0.0 W/m2
20:10 74.8 °F /  23.8 °C 48.9 °F /  9.4 °C 30.15in /  1020.9hPa South 4.0mph /  6.4km/h 4.0mph /  6.4km/h 40% 0.00in /  0mm 0.0 W/m2
20:16 74.8 °F /  23.8 °C 48.2 °F /  9 °C 30.16in /  1021.2hPa WSW 2.9mph /  4.7km/h 4.0mph /  6.4km/h 39% 0.00in /  0mm 0.0 W/m2
20:21 74.7 °F /  23.7 °C 47.3 °F /  8.5 °C 30.15in /  1020.9hPa SW 2.0mph /  3.2km/h 7.0mph /  11.3km/h 38% 0.00in /  0mm 0.0 W/m2
20:26 74.7 °F /  23.7 °C 48.0 °F /  8.9 °C 30.15in /  1020.9hPa WSW 2.0mph /  3.2km/h 7.0mph /  11.3km/h 39% 0.00in /  0mm 0.0 W/m2
20:32 74.7 °F /  23.7 °C 48.0 °F /  8.9 °C 30.15in /  1020.9hPa WSW 0.9mph /  1.4km/h 5.0mph /  8km/h 39% 0.00in /  0mm 0.0 W/m2
21:03 74.1 °F /  23.4 °C 48.2 °F /  9 °C 30.15in /  1020.9hPa Calm   1.0mph /  1.6km/h 40% 0.00in /  0mm 0.0 W/m2
21:08 73.9 °F /  23.3 °C 48.7 °F /  9.3 °C 30.15in /  1020.9hPa Calm   1.0mph /  1.6km/h 41% 0.00in /  0mm 0.0 W/m2
21:13 73.9 °F /  23.3 °C 48.7 °F /  9.3 °C 30.15in /  1020.9hPa SW 0.9mph /  1.4km/h 2.0mph /  3.2km/h 41% 0.00in /  0mm 0.0 W/m2
21:19 73.8 °F /  23.2 °C 48.6 °F /  9.2 °C 30.15in /  1020.9hPa Calm   2.0mph /  3.2km/h 41% 0.00in /  0mm 0.0 W/m2
21:24 73.8 °F /  23.2 °C 48.6 °F /  9.2 °C 30.15in /  1020.9hPa SW 0.9mph /  1.4km/h 1.0mph /  1.6km/h 41% 0.00in /  0mm 0.0 W/m2
21:29 73.8 °F /  23.2 °C 48.6 °F /  9.2 °C 30.16in /  1021.2hPa Calm     41% 0.00in /  0mm 0.0 W/m2
21:34 73.6 °F /  23.1 °C 48.4 °F /  9.1 °C 30.16in /  1021.2hPa Calm     41% 0.00in /  0mm 0.0 W/m2
21:49 73.2 °F /  22.9 °C 48.0 °F /  8.9 °C 30.16in /  1021.2hPa Calm     41% 0.00in /  0mm 0.0 W/m2
21:54 73.2 °F /  22.9 °C 48.0 °F /  8.9 °C 30.16in /  1021.2hPa Calm   1.0mph /  1.6km/h 41% 0.00in /  0mm 0.0 W/m2
22:01 72.9 °F /  22.7 °C 47.8 °F /  8.8 °C 30.16in /  1021.2hPa SW 2.9mph /  4.7km/h 3.0mph /  4.8km/h 41% 0.00in /  0mm 0.0 W/m2
22:13 72.7 °F /  22.6 °C 47.7 °F /  8.7 °C 30.16in /  1021.2hPa SSW 0.9mph /  1.4km/h 1.0mph /  1.6km/h 41% 0.00in /  0mm 0.0 W/m2
22:18 72.5 °F /  22.5 °C 48.0 °F /  8.9 °C 30.16in /  1021.2hPa Calm   1.0mph /  1.6km/h 42% 0.00in /  0mm 0.0 W/m2
22:24 72.3 °F /  22.4 °C 48.0 °F /  8.9 °C 30.16in /  1021.2hPa Calm     42% 0.00in /  0mm 0.0 W/m2
22:35 71.8 °F /  22.1 °C 48.0 °F /  8.9 °C 30.17in /  1021.6hPa Calm   3.0mph /  4.8km/h 43% 0.00in /  0mm 0.0 W/m2
22:45 71.4 °F /  21.9 °C 46.6 °F /  8.1 °C 30.17in /  1021.6hPa SSW 0.9mph /  1.4km/h 1.0mph /  1.6km/h 41% 0.00in /  0mm 0.0 W/m2
22:50 71.4 °F /  21.9 °C 45.1 °F /  7.3 °C 30.17in /  1021.6hPa WSW 2.0mph /  3.2km/h 3.0mph /  4.8km/h 39% 0.00in /  0mm 0.0 W/m2
22:55 72.1 °F /  22.3 °C 45.1 °F /  7.3 °C 30.17in /  1021.6hPa WSW 0.9mph /  1.4km/h 3.0mph /  4.8km/h 38% 0.00in /  0mm 0.0 W/m2
23:00 72.5 °F /  22.5 °C 46.2 °F /  7.9 °C 30.16in /  1021.2hPa SE 2.0mph /  3.2km/h 3.0mph /  4.8km/h 39% 0.00in /  0mm 0.0 W/m2
23:20 72.1 °F /  22.3 °C 47.1 °F /  8.4 °C 30.16in /  1021.2hPa Calm   1.0mph /  1.6km/h 41% 0.00in /  0mm 0.0 W/m2
23:25 72.0 °F /  22.2 °C 46.4 °F /  8 °C 30.16in /  1021.2hPa Calm   2.0mph /  3.2km/h 40% 0.00in /  0mm 0.0 W/m2
23:31 72.0 °F /  22.2 °C 46.4 °F /  8 °C 30.16in /  1021.2hPa SSW 2.0mph /  3.2km/h 3.0mph /  4.8km/h 40% 0.00in /  0mm 0.0 W/m2
23:36 71.8 °F /  22.1 °C 46.8 °F /  8.2 °C 30.16in /  1021.2hPa Calm   4.0mph /  6.4km/h 41% 0.00in /  0mm 0.0 W/m2
23:41 71.8 °F /  22.1 °C 46.8 °F /  8.2 °C 30.16in /  1021.2hPa Calm   1.0mph /  1.6km/h 41% 0.00in /  0mm 0.0 W/m2
23:51 71.4 °F /  21.9 °C 45.9 °F /  7.7 °C 30.16in /  1021.2hPa South 2.0mph /  3.2km/h 5.0mph /  8km/h 40% 0.00in /  0mm 0.0 W/m2
23:56 71.8 °F /  22.1 °C 46.2 °F /  7.9 °C 30.16in /  1021.2hPa SE 0.9mph /  1.4km/h 4.0mph /  6.4km/h 40% 0.00in /  0mm 0.0 W/m2
Olympia, Windhoek, Namibia
Compliments of Weather Underground - 3 mb